Test XHTML 1.0 Strict Page for WU-History Testing
Histórico de la Estación METEOCORUÑA
 
Diario Datos del Enero 16, 2018 Unidades:  Metrico    Inglés   Ambos
« Prev Dia
Sig Dia »
Diario Semanal Mensual Anual Rango
  Actual: Max: Min: Media:
Temp: 12.7 °C 13.7 °C 11.8 °C 12.6 °C
Rocío: 11.4 °C 12.5 °C 11.2 °C 11.7 °C
Humedad: 92 % 96 % 91 % 94 %
Vel. viento: 16.1 km/h 40.2 km/h 8.0 km/h 15.2 km/h
Racha: 35.4 km/h 41.8 km/h - -
Viento:WSW - - WSW
Presión: 1027.7 hPa 1028.0 hPa 1025.6 hPa -
Lluvia: 0.3 mm      
Historical Graphs
 
 
Busqueda de Enero 16, 2018
Hora Temp Rocío Presión Viento Vel. viento Racha Humedad Ratio lluvia (/hora) Radiación
00:11 12.6 °C 11.8 °C 1026.0 hPa WSW 14.5 km/h 25.7 km/h 95 % 0.0 mm 0 W/m2
00:50 12.7 °C 11.9 °C 1026.3 hPa West 11.3 km/h 24.1 km/h 95 % 0.0 mm 0 W/m2
01:12 12.7 °C 11.9 °C 1026.3 hPa WSW 14.5 km/h 35.4 km/h 95 % 0.0 mm 0 W/m2
01:18 12.7 °C 11.9 °C 1026.3 hPa WSW 14.5 km/h 32.2 km/h 95 % 0.0 mm 0 W/m2
01:29 12.6 °C 11.8 °C 1026.3 hPa West 16.1 km/h 32.2 km/h 95 % 0.0 mm 0 W/m2
02:14 12.4 °C 11.6 °C 1026.0 hPa WSW 14.5 km/h 41.8 km/h 95 % 0.0 mm 0 W/m2
02:26 12.3 °C 11.7 °C 1026.0 hPa WSW 19.3 km/h 35.4 km/h 96 % 0.0 mm 0 W/m2
02:32 12.3 °C 11.7 °C 1026.0 hPa WSW 17.7 km/h 30.6 km/h 96 % 0.0 mm 0 W/m2
02:41 12.4 °C 11.8 °C 1026.0 hPa WSW 14.5 km/h 32.2 km/h 96 % 0.0 mm 0 W/m2
02:46 12.4 °C 11.8 °C 1026.0 hPa WSW 17.7 km/h 27.4 km/h 96 % 0.0 mm 0 W/m2
03:22 12.3 °C 11.7 °C 1025.6 hPa WSW 19.3 km/h 32.2 km/h 96 % 0.0 mm 0 W/m2
03:28 12.3 °C 11.7 °C 1025.6 hPa WSW 22.5 km/h 33.8 km/h 96 % 0.0 mm 0 W/m2
03:46 12.4 °C 11.6 °C 1026.0 hPa WSW 17.7 km/h 24.1 km/h 95 % 0.0 mm 0 W/m2
03:58 12.4 °C 11.6 °C 1026.0 hPa WSW 12.9 km/h 22.5 km/h 95 % 0.0 mm 0 W/m2
04:27 12.4 °C 11.6 °C 1026.3 hPa West 8.0 km/h 17.7 km/h 95 % 0.0 mm 0 W/m2
04:37 12.4 °C 11.6 °C 1026.0 hPa WSW 9.7 km/h 27.4 km/h 95 % 0.0 mm 0 W/m2
04:43 12.3 °C 11.5 °C 1026.0 hPa WSW 14.5 km/h 33.8 km/h 95 % 0.0 mm 0 W/m2
05:00 12.2 °C 11.4 °C 1026.0 hPa WSW 16.1 km/h 33.8 km/h 95 % 0.0 mm 0 W/m2
05:14 12.2 °C 11.6 °C 1026.0 hPa WSW 14.5 km/h 25.7 km/h 96 % 0.0 mm 0 W/m2
05:19 12.2 °C 11.4 °C 1026.0 hPa WSW 12.9 km/h 27.4 km/h 95 % 0.0 mm 0 W/m2
05:27 12.2 °C 11.6 °C 1026.0 hPa WSW 11.3 km/h 22.5 km/h 96 % 0.0 mm 0 W/m2
05:33 12.2 °C 11.6 °C 1026.0 hPa WSW 11.3 km/h 27.4 km/h 96 % 0.0 mm 0 W/m2
05:38 12.2 °C 11.6 °C 1026.0 hPa WSW 12.9 km/h 24.1 km/h 96 % 0.0 mm 0 W/m2
06:05 12.2 °C 11.6 °C 1026.0 hPa WSW 11.3 km/h 24.1 km/h 96 % 0.0 mm 0 W/m2
06:17 12.2 °C 11.6 °C 1026.0 hPa WSW 11.3 km/h 24.1 km/h 96 % 0.0 mm 0 W/m2
06:23 12.1 °C 11.5 °C 1026.0 hPa WSW 9.7 km/h 29.0 km/h 96 % 0.0 mm 0 W/m2
07:02 12.0 °C 11.4 °C 1025.6 hPa WSW 17.7 km/h 24.1 km/h 96 % 0.0 mm 0 W/m2
07:08 12.0 °C 11.4 °C 1026.0 hPa WSW 17.7 km/h 29.0 km/h 96 % 0.0 mm 0 W/m2
07:15 12.0 °C 11.4 °C 1026.0 hPa WSW 16.1 km/h 19.3 km/h 96 % 0.0 mm 0 W/m2
07:40 11.9 °C 11.3 °C 1026.3 hPa WSW 9.7 km/h 19.3 km/h 96 % 0.0 mm 0 W/m2
07:48 12.0 °C 11.4 °C 1026.3 hPa WSW 9.7 km/h 17.7 km/h 96 % 0.0 mm 0 W/m2
08:03 12.0 °C 11.4 °C 1026.3 hPa WSW 12.9 km/h 20.9 km/h 96 % 0.0 mm 0 W/m2
08:49 11.9 °C 11.3 °C 1027.0 hPa WSW 12.9 km/h 25.7 km/h 96 % 0.0 mm 0 W/m2
08:56 11.9 °C 11.3 °C 1027.0 hPa WSW 16.1 km/h 24.1 km/h 96 % 0.0 mm 0 W/m2
09:03 11.8 °C 11.2 °C 1026.6 hPa SW 17.7 km/h 25.7 km/h 96 % 0.0 mm 0 W/m2
09:17 11.8 °C 11.2 °C 1027.0 hPa WSW 16.1 km/h 25.7 km/h 96 % 0.0 mm 0 W/m2
09:25 11.8 °C 11.2 °C 1027.0 hPa WSW 14.5 km/h 32.2 km/h 96 % 0.0 mm 7 W/m2
09:33 11.8 °C 11.2 °C 1026.6 hPa WSW 17.7 km/h 22.5 km/h 96 % 0.0 mm 11 W/m2
09:39 11.8 °C 11.2 °C 1027.0 hPa WSW 17.7 km/h 27.4 km/h 96 % 0.0 mm 12 W/m2
09:46 11.8 °C 11.2 °C 1027.0 hPa WSW 19.3 km/h 27.4 km/h 96 % 0.0 mm 19 W/m2
10:21 12.2 °C 11.4 °C 1027.3 hPa WSW 19.3 km/h 32.2 km/h 95 % 0.0 mm 35 W/m2
10:39 12.4 °C 11.6 °C 1027.3 hPa WSW 17.7 km/h 29.0 km/h 95 % 0.0 mm 53 W/m2
10:47 12.5 °C 11.6 °C 1027.0 hPa WSW 22.5 km/h 22.5 km/h 94 % 0.0 mm 44.0 W/m2
11:03 12.6 °C 11.7 °C 1027.3 hPa WSW 12.9 km/h 25.7 km/h 94 % 0.0 mm 56 W/m2
11:29 12.8 °C 11.8 °C 1027.7 hPa WSW 11.3 km/h 19.3 km/h 94 % 0.0 mm 81 W/m2
11:36 12.8 °C 11.7 °C 1027.7 hPa WSW 11.3 km/h 27.4 km/h 93 % 0.0 mm 60 W/m2
11:47 12.8 °C 11.7 °C 1028.0 hPa WSW 9.7 km/h 30.6 km/h 93 % 0.0 mm 81 W/m2
12:07 12.8 °C 11.7 °C 1028.0 hPa WSW 12.9 km/h 20.9 km/h 93 % 0.0 mm 72 W/m2
12:47 13.1 °C 11.9 °C 1027.3 hPa SW 20.9 km/h 20.9 km/h 93 % 0.0 mm 141.0 W/m2
13:12 13.1 °C 12.0 °C 1027.3 hPa WSW 9.7 km/h 27.4 km/h 93 % 0.0 mm 158 W/m2
13:20 13.1 °C 12.0 °C 1027.3 hPa WSW 12.9 km/h 20.9 km/h 93 % 0.0 mm 105 W/m2
13:34 13.2 °C 12.1 °C 1027.0 hPa WSW 8.0 km/h 32.2 km/h 93 % 0.0 mm 104 W/m2
13:45 13.4 °C 12.3 °C 1027.0 hPa WSW 14.5 km/h 27.4 km/h 93 % 0.0 mm 179 W/m2
13:57 13.6 °C 12.5 °C 1027.0 hPa WSW 14.5 km/h 17.7 km/h 93 % 0.0 mm 81 W/m2
14:04 13.6 °C 12.3 °C 1027.0 hPa WSW 11.3 km/h 25.7 km/h 92 % 0.0 mm 105 W/m2
14:28 13.6 °C 12.2 °C 1026.6 hPa WSW 16.1 km/h 24.1 km/h 91 % 0.0 mm 95 W/m2
14:54 13.5 °C 12.1 °C 1026.3 hPa WSW 12.9 km/h 29.0 km/h 91 % 0.0 mm 74 W/m2
15:01 13.6 °C 12.2 °C 1026.3 hPa WSW 14.5 km/h 25.7 km/h 91 % 0.0 mm 70 W/m2
15:15 13.5 °C 12.1 °C 1026.0 hPa WSW 16.1 km/h 30.6 km/h 91 % 0.0 mm 86 W/m2
15:21 13.6 °C 12.2 °C 1026.0 hPa WSW 17.7 km/h 27.4 km/h 91 % 0.0 mm 70 W/m2
15:28 13.6 °C 12.2 °C 1025.6 hPa WSW 16.1 km/h 30.6 km/h 91 % 0.0 mm 91 W/m2
15:34 13.6 °C 12.2 °C 1025.6 hPa WSW 16.1 km/h 30.6 km/h 91 % 0.0 mm 135 W/m2
15:40 13.7 °C 12.3 °C 1025.6 hPa WSW 14.5 km/h 29.0 km/h 91 % 0.0 mm 54 W/m2
15:51 13.6 °C 12.2 °C 1025.6 hPa West 12.9 km/h 27.4 km/h 91 % 0.0 mm 37 W/m2
15:59 13.4 °C 11.9 °C 1025.6 hPa West 11.3 km/h 25.7 km/h 91 % 0.0 mm 44 W/m2
16:06 13.2 °C 11.9 °C 1025.6 hPa WSW 11.3 km/h 19.3 km/h 92 % 0.0 mm 47 W/m2
16:42 13.1 °C 12.0 °C 1026.0 hPa West 9.7 km/h 25.7 km/h 93 % 0.0 mm 54 W/m2
16:47 13.1 °C 12.0 °C 1025.6 hPa WSW 11.3 km/h 27.4 km/h 93 % 0.0 mm 54 W/m2
16:53 13.1 °C 12.0 °C 1026.0 hPa WSW 12.9 km/h 22.5 km/h 93 % 0.0 mm 58 W/m2
17:05 12.9 °C 11.8 °C 1026.0 hPa West 11.3 km/h 20.9 km/h 93 % 0.0 mm 26 W/m2
17:18 12.8 °C 11.8 °C 1026.0 hPa WSW 9.7 km/h 19.3 km/h 94 % 0.0 mm 21 W/m2
17:26 12.8 °C 11.8 °C 1026.0 hPa WNW 8.0 km/h 14.5 km/h 94 % 0.0 mm 12 W/m2
17:35 12.8 °C 11.8 °C 1026.0 hPa West 8.0 km/h 22.5 km/h 94 % 0.0 mm 5 W/m2
18:00 12.6 °C 11.8 °C 1025.6 hPa WSW 14.5 km/h 27.4 km/h 95 % 0.0 mm 7.0 W/m2
18:05 12.6 °C 11.8 °C 1026.3 hPa WSW 14.5 km/h 33.8 km/h 95 % 0.0 mm 0 W/m2
18:10 12.5 °C 11.7 °C 1026.0 hPa WSW 16.1 km/h 30.6 km/h 95 % 0.0 mm 0 W/m2
18:15 12.5 °C 11.7 °C 1026.3 hPa WSW 16.1 km/h 35.4 km/h 95 % 0.0 mm 0 W/m2
18:22 12.5 °C 11.7 °C 1026.3 hPa WSW 14.5 km/h 35.4 km/h 95 % 0.0 mm 0 W/m2
18:30 12.4 °C 11.6 °C 1026.3 hPa WSW 14.5 km/h 37.0 km/h 95 % 0.0 mm 0 W/m2
18:31 12.4 °C 11.6 °C 1026.3 hPa WSW 16.1 km/h 29.0 km/h 95 % 0.0 mm 0 W/m2
18:47 12.5 °C 11.7 °C 1026.3 hPa WSW 12.9 km/h 25.7 km/h 95 % 0.0 mm 0 W/m2
19:07 12.4 °C 11.7 °C 1026.0 hPa WNW 31.5 km/h 31.5 km/h 95 % 0.0 mm 0.0 W/m2
19:14 12.4 °C 11.7 °C 1026.3 hPa WSW 35.4 km/h 35.4 km/h 95 % 0.0 mm 0.0 W/m2
19:34 12.4 °C 11.6 °C 1026.6 hPa WSW 12.9 km/h 35.4 km/h 95 % 0.0 mm 0 W/m2
19:46 12.4 °C 11.6 °C 1027.0 hPa WSW 16.1 km/h 38.6 km/h 95 % 0.0 mm 0 W/m2
19:51 12.4 °C 11.6 °C 1027.0 hPa WSW 17.7 km/h 33.8 km/h 95 % 0.0 mm 0 W/m2
20:04 12.4 °C 11.8 °C 1027.0 hPa WSW 12.9 km/h 27.4 km/h 96 % 0.0 mm 0 W/m2
20:13 12.4 °C 11.8 °C 1027.0 hPa WSW 12.9 km/h 35.4 km/h 96 % 0.0 mm 0 W/m2
20:19 12.4 °C 11.8 °C 1027.0 hPa WSW 11.3 km/h 37.0 km/h 96 % 0.3 mm 0 W/m2
20:29 12.3 °C 11.7 °C 1026.6 hPa West 40.2 km/h 40.2 km/h 96 % 0.3 mm 0.0 W/m2
20:34 12.3 °C 11.7 °C 1027.0 hPa WSW 19.3 km/h 33.8 km/h 96 % 0.3 mm 0 W/m2
21:05 12.3 °C 11.7 °C 1027.3 hPa WSW 17.7 km/h 32.2 km/h 96 % 0.3 mm 0 W/m2
21:24 12.4 °C 11.6 °C 1027.3 hPa WSW 16.1 km/h 30.6 km/h 95 % 0.0 mm 0 W/m2
21:32 12.4 °C 11.6 °C 1027.3 hPa WSW 17.7 km/h 38.6 km/h 95 % 0.0 mm 0 W/m2
21:38 12.5 °C 11.7 °C 1027.3 hPa WSW 19.3 km/h 27.4 km/h 95 % 0.0 mm 0 W/m2
22:06 12.6 °C 11.5 °C 1027.3 hPa WSW 17.7 km/h 33.8 km/h 93 % 0.0 mm 0 W/m2
22:14 12.6 °C 11.5 °C 1027.3 hPa WSW 20.9 km/h 40.2 km/h 93 % 0.0 mm 0 W/m2
22:19 12.6 °C 11.3 °C 1027.3 hPa WSW 24.1 km/h 30.6 km/h 92 % 0.0 mm 0 W/m2
22:31 12.7 °C 11.4 °C 1027.3 hPa WSW 16.1 km/h 30.6 km/h 92 % 0.0 mm 0 W/m2
22:37 12.7 °C 11.4 °C 1027.7 hPa WSW 16.1 km/h 35.4 km/h 92 % 0.0 mm 0 W/m2
Meteocoruña
Agradecimientos a Weather Underground - 2 mb